»·PEaware :: N463PA KIFP-KPSP

N463PA :: KIFP-KPSP

FLIGHT INFORMATION

Flight Status: Arrived
Operator: Privately registered:
United States
More flights under this callsign
Pilot: Vinicius U. (17612)
Aircraft: PIPER PA-44 SEMINOLE
(PA44)
More flights by this aircraft type
Origin: KIFP Laughlin/Bullhead Intl
United States
Destination: KPSP Palm Springs Intl
United States
More flights between these airports :: More routes between these airports
Route: +EED V208 TNP V370 PSP
File this flight plan on PilotEdge
Remarks:
Altitude:
(Current/Filed)
F080
Speed:
(Current/Filed)
140kts
Departed: 26-Dec-17 09:31 AM
Arrived: 26-Dec-17 10:50 AM
Distance/Time
Traveled:
125nm/1:19
Distance/Time
To Go:
Arrived

Flight Plot

Page will automatically refresh every two minutes.


Map Options




Map Legend


Flown Route
Filed Route
Departure Airport
Arrival Airport
Navaid (VOR, NDB)
Fix

Horizontal Profiles

Position Reports

Time Latitude Longitude Heading Altitude Ground
Speed
26-Dec-17 09:01 35.159254 -114.556021 251 698ft 0kts
26-Dec-17 09:02 35.159254 -114.556021 251 698ft 0kts
26-Dec-17 09:03 35.159254 -114.556021 251 698ft 0kts
26-Dec-17 09:04 35.159254 -114.556021 251 698ft 0kts
26-Dec-17 09:05 35.159254 -114.556021 251 698ft 0kts
26-Dec-17 09:06 35.159254 -114.556021 251 698ft 0kts
26-Dec-17 09:07 35.159254 -114.556021 251 698ft 0kts
26-Dec-17 09:08 35.159254 -114.556021 251 698ft 0kts
26-Dec-17 09:09 35.159254 -114.556021 251 698ft 0kts
26-Dec-17 09:10 35.159254 -114.556021 251 698ft 0kts
26-Dec-17 09:11 35.159254 -114.556021 251 698ft 0kts
26-Dec-17 09:12 35.159254 -114.556021 251 698ft 0kts
26-Dec-17 09:13 35.159254 -114.556021 251 698ft 0kts
26-Dec-17 09:14 35.159254 -114.556021 251 698ft 0kts
26-Dec-17 09:15 35.159254 -114.556021 251 698ft 0kts
26-Dec-17 09:16 35.159254 -114.556021 251 698ft 0kts
26-Dec-17 09:17 35.159254 -114.556021 251 698ft 0kts
26-Dec-17 09:18 35.159254 -114.556021 251 698ft 0kts
26-Dec-17 09:19 35.159254 -114.556021 251 698ft 0kts
26-Dec-17 09:20 35.159254 -114.556021 251 698ft 0kts
26-Dec-17 09:21 35.159254 -114.556021 251 698ft 0kts
26-Dec-17 09:22 35.159254 -114.556021 251 698ft 0kts
26-Dec-17 09:23 35.159254 -114.556021 251 698ft 0kts
26-Dec-17 09:24 35.159254 -114.556021 251 698ft 0kts
26-Dec-17 09:25 35.159254 -114.556021 251 698ft 0kts
26-Dec-17 09:26 35.159254 -114.556021 251 698ft 0kts
26-Dec-17 09:27 35.159254 -114.556022 251 698ft 0kts
26-Dec-17 09:28 35.159254 -114.556023 251 698ft 0kts
26-Dec-17 09:29 35.159253 -114.556023 251 698ft 0kts
26-Dec-17 09:30 35.157847 -114.557622 265 698ft 14kts
26-Dec-17 09:31 35.161372 -114.558633 356 698ft 10kts
26-Dec-17 09:32 35.165967 -114.558980 356 698ft 28kts
26-Dec-17 09:33 35.167572 -114.559591 267 698ft 0kts
26-Dec-17 09:34 35.167572 -114.559597 267 698ft 0kts
26-Dec-17 09:35 35.167572 -114.559598 267 698ft 0kts
26-Dec-17 09:36 35.167540 -114.560190 245 698ft 10kts
26-Dec-17 09:37 35.146118 -114.558827 176 1424ft 89kts
26-Dec-17 09:38 35.120103 -114.557987 175 2515ft 96kts
26-Dec-17 09:39 35.093861 -114.556591 179 3492ft 95kts
26-Dec-17 09:40 35.066825 -114.554482 177 4393ft 95kts
26-Dec-17 09:41 35.039994 -114.553357 174 5338ft 96kts
26-Dec-17 09:42 35.012880 -114.550656 173 6238ft 101kts
26-Dec-17 09:43 34.984865 -114.542469 157 7092ft 107kts
26-Dec-17 09:44 34.955365 -114.529275 162 7861ft 120kts
26-Dec-17 09:45 34.920243 -114.517064 166 8036ft 151kts
26-Dec-17 09:46 34.877796 -114.505425 170 8073ft 160kts
26-Dec-17 09:47 34.834344 -114.493962 163 8142ft 159kts
26-Dec-17 09:48 34.790326 -114.477836 168 7958ft 168kts
26-Dec-17 09:49 34.748162 -114.480096 241 7978ft 152kts
26-Dec-17 09:50 34.731974 -114.527157 251 8014ft 152kts
26-Dec-17 09:51 34.716628 -114.574770 250 8015ft 153kts
26-Dec-17 09:52 34.692961 -114.617730 232 8022ft 155kts
26-Dec-17 09:53 34.666206 -114.658871 238 8023ft 155kts
26-Dec-17 09:54 34.643017 -114.703661 238 8025ft 157kts
26-Dec-17 09:55 34.619781 -114.748204 239 8025ft 156kts
26-Dec-17 09:56 34.596763 -114.792655 240 8025ft 155kts
26-Dec-17 09:57 34.574968 -114.837919 240 8024ft 154kts
26-Dec-17 09:58 34.553338 -114.882976 240 8024ft 154kts
26-Dec-17 09:59 34.531382 -114.928184 240 8024ft 155kts
26-Dec-17 10:00 34.509135 -114.973183 241 8024ft 156kts
26-Dec-17 10:01 34.486579 -115.018041 241 8024ft 156kts
26-Dec-17 10:02 34.464307 -115.062775 241 8025ft 155kts
26-Dec-17 10:03 34.442086 -115.107774 241 8024ft 155kts
26-Dec-17 10:04 34.420071 -115.152868 241 8026ft 155kts
26-Dec-17 10:05 34.398131 -115.198046 241 8026ft 155kts
26-Dec-17 10:06 34.376227 -115.242878 241 8026ft 154kts
26-Dec-17 10:07 34.353854 -115.287296 240 8026ft 153kts
26-Dec-17 10:08 34.331796 -115.330882 240 8026ft 153kts
26-Dec-17 10:09 34.310074 -115.375202 241 8026ft 152kts
26-Dec-17 10:10 34.288268 -115.419282 240 8024ft 152kts
26-Dec-17 10:11 34.266612 -115.463155 240 8015ft 152kts
26-Dec-17 10:12 34.245165 -115.506894 240 8030ft 152kts
26-Dec-17 10:13 34.224016 -115.551933 241 8034ft 154kts
26-Dec-17 10:14 34.201051 -115.595730 238 8034ft 154kts
26-Dec-17 10:15 34.177711 -115.639503 237 8035ft 154kts
26-Dec-17 10:16 34.155434 -115.683870 241 8038ft 154kts
26-Dec-17 10:17 34.134429 -115.728945 241 8037ft 154kts
26-Dec-17 10:18 34.111294 -115.772611 235 8038ft 154kts
26-Dec-17 10:19 34.092409 -115.818278 257 8044ft 153kts
26-Dec-17 10:20 34.076969 -115.865512 241 8054ft 154kts
26-Dec-17 10:21 34.056089 -115.911159 241 8056ft 155kts
26-Dec-17 10:22 34.036917 -115.957768 246 8059ft 155kts
26-Dec-17 10:23 34.019589 -116.005650 246 8059ft 155kts
26-Dec-17 10:24 34.002261 -116.053303 246 8057ft 155kts
26-Dec-17 10:25 33.984701 -116.100963 245 8056ft 156kts
26-Dec-17 10:26 33.958737 -116.139557 194 8079ft 155kts
26-Dec-17 10:27 33.915519 -116.144505 184 8089ft 157kts
26-Dec-17 10:28 33.871852 -116.148272 184 8092ft 158kts
26-Dec-17 10:29 33.827919 -116.150985 182 8093ft 157kts
26-Dec-17 10:30 33.784242 -116.152546 182 8092ft 157kts
26-Dec-17 10:31 33.740270 -116.152896 180 8091ft 158kts
26-Dec-17 10:32 33.696187 -116.154534 184 8092ft 158kts
26-Dec-17 10:33 33.652230 -116.158275 185 8092ft 158kts
26-Dec-17 10:34 33.609011 -116.152721 141 8068ft 161kts
26-Dec-17 10:35 33.583842 -116.108958 122 7707ft 166kts
26-Dec-17 10:36 33.568900 -116.063758 63 7326ft 136kts
26-Dec-17 10:37 33.591595 -116.069841 266 7144ft 110kts
26-Dec-17 10:38 33.598584 -116.102784 296 7069ft 107kts
26-Dec-17 10:39 33.615206 -116.136895 304 7152ft 128kts
26-Dec-17 10:40 33.640492 -116.167762 352 6910ft 138kts
26-Dec-17 10:41 33.653453 -116.136511 125 6367ft 131kts
26-Dec-17 10:42 33.634305 -116.097736 119 5721ft 135kts
26-Dec-17 10:43 33.606277 -116.076507 206 4992ft 137kts
26-Dec-17 10:44 33.605387 -116.114565 295 4429ft 130kts
26-Dec-17 10:45 33.624656 -116.153218 304 4121ft 134kts
26-Dec-17 10:46 33.646694 -116.191010 306 3843ft 139kts
26-Dec-17 10:47 33.668488 -116.229591 306 3636ft 136kts
26-Dec-17 10:48 33.690834 -116.266214 300 3403ft 136kts
26-Dec-17 10:49 33.712166 -116.302982 304 3400ft 131kts
26-Dec-17 10:50 33.731176 -116.341369 304 3364ft 136kts
26-Dec-17 10:51 33.754323 -116.378409 305 3192ft 139kts
26-Dec-17 10:52 33.778064 -116.415092 303 2811ft 134kts
26-Dec-17 10:53 33.796175 -116.452640 286 2166ft 119kts
26-Dec-17 10:54 33.801308 -116.484068 329 1264ft 89kts
26-Dec-17 10:55 33.820127 -116.499179 323 513ft 75kts
26-Dec-17 10:56 33.824931 -116.502534 88 480ft 0kts
26-Dec-17 10:57 33.824931 -116.502532 88 480ft 0kts
26-Dec-17 10:58 33.824931 -116.502532 88 480ft 0kts
26-Dec-17 10:59 33.824931 -116.502531 88 480ft 0kts
26-Dec-17 11:00 33.822798 -116.499588 142 480ft 22kts
26-Dec-17 11:01 33.818982 -116.495445 54 480ft 17kts
26-Dec-17 11:02 33.820809 -116.494979 136 480ft 0kts
26-Dec-17 11:03 33.820809 -116.494979 136 480ft 0kts
26-Dec-17 11:04 33.820809 -116.494979 136 480ft 0kts
26-Dec-17 11:05 33.820809 -116.494979 136 480ft 0kts
26-Dec-17 11:06 33.820809 -116.494979 136 480ft 0kts
26-Dec-17 11:07 33.820809 -116.494979 136 480ft 0kts
26-Dec-17 11:08 33.820809 -116.494979 136 480ft 0kts
26-Dec-17 11:09 33.820809 -116.494979 136 480ft 0kts

Navigation Log

Ident Type
1. KIFP Airport
2. EED Navaid
3. TNP Navaid
4. PSP Navaid
5. KPSP Airport